createdAt,value
2022-12-27T00:01:47.766Z,-0.01
2022-12-27T00:04:33.963Z,0.00
2022-12-27T00:07:01.254Z,-0.05
2022-12-27T00:09:28.644Z,0.02
2022-12-27T00:12:00.149Z,-0.03
2022-12-27T00:14:47.821Z,-0.02
2022-12-27T00:17:15.386Z,-0.04
2022-12-27T00:19:58.549Z,-0.01
2022-12-27T00:22:40.480Z,0.01
2022-12-27T00:25:08.361Z,0.01
2022-12-27T00:27:45.688Z,0.05
2022-12-27T00:30:13.207Z,-0.01
2022-12-27T00:33:13.110Z,0.03
2022-12-27T00:36:09.692Z,0.05
2022-12-27T00:39:15.446Z,0.00
2022-12-27T00:41:49.095Z,-0.06
2022-12-27T00:44:54.527Z,-0.05
2022-12-27T00:50:12.719Z,-0.05
2022-12-27T00:52:47.953Z,-0.07
2022-12-27T00:55:15.818Z,-0.16
2022-12-27T00:58:17.956Z,-0.18
2022-12-27T01:07:38.980Z,-0.15
2022-12-27T01:10:18.203Z,-0.17
2022-12-27T01:12:53.286Z,-0.18
2022-12-27T01:15:27.358Z,-0.14
2022-12-27T01:18:24.755Z,-0.12
2022-12-27T01:21:09.582Z,-0.11
2022-12-27T01:23:37.406Z,-0.12
2022-12-27T01:26:33.726Z,-0.11
2022-12-27T01:29:22.704Z,-0.12
2022-12-27T01:31:50.258Z,-0.08
2022-12-27T01:34:38.351Z,0.02
2022-12-27T01:40:02.265Z,-0.07
2022-12-27T01:42:53.903Z,-0.03
2022-12-27T01:45:25.953Z,-0.08
2022-12-27T01:47:55.900Z,-0.03
2022-12-27T01:50:47.174Z,0.01
2022-12-27T02:12:11.795Z,-0.25
2022-12-27T02:16:38.294Z,-0.23
2022-12-27T02:48:25.049Z,-0.57
2022-12-27T02:56:11.693Z,-0.60
2022-12-27T03:24:50.577Z,-0.69
2022-12-27T04:24:21.673Z,-0.82
2022-12-27T04:27:26.061Z,-0.64
2022-12-27T04:30:48.052Z,-0.63
2022-12-27T04:33:38.554Z,-0.49
2022-12-27T04:39:37.158Z,-0.40
2022-12-27T04:42:31.859Z,-0.22
2022-12-27T04:45:33.107Z,-0.16
2022-12-27T04:51:52.686Z,0.03
2022-12-27T04:55:13.082Z,0.15
2022-12-27T04:57:50.069Z,0.18
2022-12-27T05:04:12.123Z,0.29
2022-12-27T05:07:37.158Z,0.36
2022-12-27T05:10:51.385Z,0.46
2022-12-27T05:13:54.405Z,0.42
2022-12-27T05:17:10.508Z,0.47
2022-12-27T05:29:11.987Z,0.76
2022-12-27T05:31:38.964Z,0.72
2022-12-27T05:34:06.844Z,0.80
2022-12-27T05:36:34.059Z,0.81
2022-12-27T05:39:05.213Z,0.79
2022-12-27T05:41:37.665Z,0.84
2022-12-27T05:47:55.261Z,0.91
2022-12-27T05:51:10.699Z,0.95
2022-12-27T06:00:36.125Z,1.18
2022-12-27T06:03:12.115Z,1.17
2022-12-27T06:05:39.581Z,1.23
2022-12-27T06:08:10.454Z,1.28
2022-12-27T06:10:40.604Z,1.31
2022-12-27T06:13:11.330Z,1.34
2022-12-27T06:15:40.816Z,1.29
2022-12-27T06:18:09.233Z,1.37
2022-12-27T06:20:36.881Z,1.49
2022-12-27T06:23:03.828Z,1.45
2022-12-27T06:25:30.566Z,1.50
2022-12-27T06:27:57.356Z,1.53
2022-12-27T06:30:24.249Z,1.51
2022-12-27T06:32:52.041Z,1.54
2022-12-27T06:35:18.724Z,1.56
2022-12-27T06:37:48.545Z,1.60
2022-12-27T06:40:15.430Z,1.66
2022-12-27T06:42:42.282Z,1.75
2022-12-27T06:45:10.476Z,1.78
2022-12-27T06:47:37.687Z,1.91
2022-12-27T06:50:06.623Z,1.91
2022-12-27T06:52:42.453Z,1.96
2022-12-27T06:55:12.286Z,2.01
2022-12-27T06:58:02.877Z,2.02
2022-12-27T07:00:29.957Z,2.04
2022-12-27T07:02:56.741Z,2.08
2022-12-27T07:05:23.789Z,2.13
2022-12-27T07:07:53.396Z,2.24
2022-12-27T07:10:20.446Z,2.36
2022-12-27T07:12:47.666Z,2.39
2022-12-27T07:15:18.237Z,2.45
2022-12-27T07:17:45.173Z,2.51
2022-12-27T07:20:12.312Z,2.60
2022-12-27T07:22:46.881Z,2.65
2022-12-27T07:25:13.570Z,2.75
2022-12-27T07:27:43.186Z,2.81
2022-12-27T07:30:14.274Z,2.99
2022-12-27T07:32:44.407Z,3.00
2022-12-27T07:35:11.213Z,3.06
2022-12-27T07:37:38.044Z,3.12
2022-12-27T07:40:05.372Z,3.23
2022-12-27T07:42:32.411Z,3.36
2022-12-27T07:44:59.597Z,3.49
2022-12-27T07:47:26.304Z,3.65
2022-12-27T07:49:52.921Z,3.75
2022-12-27T07:52:19.602Z,3.78
2022-12-27T07:54:46.315Z,3.85
2022-12-27T07:57:12.988Z,3.95
2022-12-27T07:59:39.683Z,4.04
2022-12-27T08:02:07.032Z,4.14
2022-12-27T08:04:37.633Z,4.32
2022-12-27T08:07:16.583Z,4.42
2022-12-27T08:09:46.078Z,4.52
2022-12-27T08:12:13.796Z,4.63
2022-12-27T08:14:40.934Z,4.79
2022-12-27T08:17:12.320Z,4.89
2022-12-27T08:19:39.768Z,4.99
2022-12-27T08:22:06.840Z,5.11
2022-12-27T08:24:33.620Z,5.01
2022-12-27T08:27:00.604Z,4.95
2022-12-27T08:29:27.642Z,4.96
2022-12-27T08:31:54.646Z,4.98
2022-12-27T08:34:21.501Z,5.05
2022-12-27T08:36:55.928Z,5.08
2022-12-27T08:39:24.605Z,5.23
2022-12-27T08:41:53.550Z,5.40
2022-12-27T08:44:20.419Z,5.53
2022-12-27T08:46:47.697Z,5.72
2022-12-27T08:49:14.398Z,5.92
2022-12-27T08:51:41.785Z,6.18
2022-12-27T08:54:10.191Z,6.39
2022-12-27T08:56:37.159Z,6.67
2022-12-27T08:59:03.995Z,6.87
2022-12-27T09:01:30.946Z,6.99
2022-12-27T09:03:57.826Z,6.99
2022-12-27T09:06:25.891Z,7.09
2022-12-27T09:08:52.990Z,7.29
2022-12-27T09:11:26.381Z,7.43
2022-12-27T09:13:53.315Z,7.59
2022-12-27T09:16:24.999Z,7.80
2022-12-27T09:18:53.762Z,7.86
2022-12-27T09:21:21.922Z,8.07
2022-12-27T09:23:49.670Z,8.22
2022-12-27T09:26:17.975Z,8.37
2022-12-27T09:28:44.977Z,8.65
2022-12-27T09:31:13.005Z,8.90
2022-12-27T09:33:40.566Z,9.04
2022-12-27T09:36:10.328Z,9.20
2022-12-27T09:38:41.229Z,9.47
2022-12-27T09:42:26.006Z,9.72
2022-12-27T09:44:40.560Z,9.93
2022-12-27T09:47:19.641Z,10.15
2022-12-27T09:50:12.019Z,10.28
2022-12-27T09:52:53.556Z,10.52
2022-12-27T09:55:32.391Z,10.67
2022-12-27T09:58:16.064Z,10.80
2022-12-27T10:00:46.344Z,10.90
2022-12-27T10:03:13.901Z,11.04
2022-12-27T10:05:45.100Z,11.17
2022-12-27T10:08:30.291Z,11.26
2022-12-27T10:11:36.875Z,11.54
2022-12-27T10:14:18.479Z,11.60
2022-12-27T10:17:16.039Z,11.65
2022-12-27T10:19:48.671Z,11.66
2022-12-27T10:22:23.992Z,11.67
2022-12-27T10:24:56.939Z,11.78
2022-12-27T10:27:28.685Z,12.03
2022-12-27T10:29:57.501Z,12.14
2022-12-27T10:32:24.636Z,12.17
2022-12-27T10:35:22.318Z,12.34
2022-12-27T10:37:50.909Z,12.51
2022-12-27T10:40:21.265Z,12.70
2022-12-27T10:43:17.174Z,12.93
2022-12-27T10:45:44.081Z,13.09
2022-12-27T10:48:17.134Z,13.25
2022-12-27T10:50:57.061Z,13.51
2022-12-27T10:53:47.307Z,13.64
2022-12-27T10:56:17.123Z,13.76
2022-12-27T10:58:54.691Z,13.87
2022-12-27T11:01:28.827Z,13.97
2022-12-27T11:04:21.030Z,14.10
2022-12-27T11:06:53.927Z,14.29
2022-12-27T11:09:28.776Z,14.46
2022-12-27T11:12:24.140Z,14.63
2022-12-27T11:14:57.240Z,14.81
2022-12-27T11:17:41.163Z,14.97
2022-12-27T11:20:34.471Z,15.14
2022-12-27T11:23:05.766Z,15.22
2022-12-27T11:25:34.112Z,15.40
2022-12-27T11:28:37.741Z,15.60
2022-12-27T11:31:18.148Z,15.74
2022-12-27T11:33:55.892Z,15.92
2022-12-27T11:36:28.620Z,16.08
2022-12-27T11:38:56.150Z,16.02
2022-12-27T11:41:35.477Z,16.01
2022-12-27T11:47:12.204Z,15.80
2022-12-27T11:50:12.534Z,15.60
2022-12-27T11:52:52.097Z,15.47
2022-12-27T11:56:06.107Z,15.41
2022-12-27T11:58:39.842Z,15.45
2022-12-27T12:01:28.287Z,15.52
2022-12-27T12:04:34.768Z,15.40
2022-12-27T12:07:34.707Z,15.35
2022-12-27T12:10:21.822Z,15.28
2022-12-27T12:13:16.917Z,15.18
2022-12-27T12:16:12.823Z,15.12
2022-12-27T12:19:17.097Z,15.13
2022-12-27T12:21:53.186Z,15.06
2022-12-27T12:24:54.034Z,15.07
2022-12-27T12:28:56.440Z,15.08
2022-12-27T12:31:32.350Z,15.06
2022-12-27T12:34:37.125Z,15.11
2022-12-27T12:37:34.879Z,15.07
2022-12-27T12:40:27.662Z,14.98
2022-12-27T12:43:27.111Z,14.89
2022-12-27T12:46:22.552Z,14.94
2022-12-27T12:49:18.540Z,14.92
2022-12-27T12:52:14.193Z,14.97
2022-12-27T12:55:02.853Z,14.99
2022-12-27T12:57:29.588Z,14.86
2022-12-27T13:00:17.903Z,14.66
2022-12-27T13:03:17.028Z,14.40
2022-12-27T13:06:11.562Z,14.39
2022-12-27T13:08:57.053Z,14.32
2022-12-27T13:11:46.701Z,14.31
2022-12-27T13:14:28.344Z,14.22
2022-12-27T13:17:22.241Z,14.04
2022-12-27T13:20:18.176Z,13.86
2022-12-27T13:23:12.801Z,13.73
2022-12-27T13:26:22.673Z,13.47
2022-12-27T13:29:25.391Z,13.36
2022-12-27T13:32:09.340Z,13.26
2022-12-27T13:34:45.206Z,13.23
2022-12-27T13:37:12.221Z,13.28
2022-12-27T13:43:50.954Z,13.18
2022-12-27T13:47:01.629Z,13.19
2022-12-27T13:50:18.299Z,13.11
2022-12-27T13:56:55.399Z,13.00
2022-12-27T13:59:28.475Z,12.88
2022-12-27T14:02:12.728Z,12.92
2022-12-27T14:04:59.774Z,12.91
2022-12-27T14:07:42.052Z,12.78
2022-12-27T14:10:27.099Z,12.71
2022-12-27T14:13:01.080Z,12.63
2022-12-27T14:15:43.548Z,12.60
2022-12-27T14:18:38.336Z,12.50
2022-12-27T14:21:26.681Z,12.47
2022-12-27T14:24:01.700Z,12.30
2022-12-27T14:27:20.033Z,12.27
2022-12-27T14:30:18.563Z,12.16
2022-12-27T14:33:17.162Z,11.94
2022-12-27T14:35:56.005Z,11.85
2022-12-27T14:38:38.129Z,11.78
2022-12-27T14:41:20.338Z,11.59
2022-12-27T14:44:10.457Z,11.54
2022-12-27T14:47:20.688Z,11.41
2022-12-27T14:50:16.609Z,11.31
2022-12-27T14:53:00.983Z,11.18
2022-12-27T14:56:28.616Z,11.12
2022-12-27T14:59:04.193Z,11.02
2022-12-27T15:01:52.770Z,10.86
2022-12-27T15:05:01.601Z,10.82
2022-12-27T15:08:00.845Z,10.68
2022-12-27T15:11:01.605Z,10.73
2022-12-27T15:13:57.156Z,10.67
2022-12-27T15:16:49.866Z,10.66
2022-12-27T15:19:43.447Z,10.58
2022-12-27T15:22:22.484Z,10.61
2022-12-27T15:25:00.003Z,10.51
2022-12-27T15:27:35.749Z,10.53
2022-12-27T15:30:10.650Z,10.52
2022-12-27T15:32:55.297Z,10.42
2022-12-27T15:35:40.493Z,10.44
2022-12-27T15:38:36.166Z,10.42
2022-12-27T15:41:08.784Z,10.37
2022-12-27T15:43:54.231Z,10.37
2022-12-27T15:46:38.962Z,10.32
2022-12-27T15:49:15.069Z,10.26
2022-12-27T15:52:00.677Z,10.11
2022-12-27T15:54:51.819Z,10.20
2022-12-27T15:57:26.530Z,10.17
2022-12-27T16:00:14.255Z,10.12
2022-12-27T16:02:44.087Z,10.02
2022-12-27T16:05:25.818Z,9.78
2022-12-27T16:08:13.551Z,9.74
2022-12-27T16:10:40.851Z,9.69
2022-12-27T16:13:10.900Z,9.63
2022-12-27T16:15:45.346Z,9.56
2022-12-27T16:18:43.762Z,9.44
2022-12-27T16:21:24.157Z,9.24
2022-12-27T16:24:03.764Z,9.08
2022-12-27T16:26:35.879Z,8.93
2022-12-27T16:29:12.279Z,8.83
2022-12-27T16:31:45.722Z,8.79
2022-12-27T16:34:31.792Z,8.88
2022-12-27T16:37:01.549Z,8.93
2022-12-27T16:39:50.933Z,8.87
2022-12-27T16:42:24.805Z,8.77
2022-12-27T16:45:05.215Z,8.40
2022-12-27T16:47:38.634Z,8.37
2022-12-27T16:50:27.022Z,8.25
2022-12-27T16:53:00.421Z,8.12
2022-12-27T16:55:58.913Z,8.06
2022-12-27T16:58:31.820Z,8.01
2022-12-27T17:01:01.390Z,7.86
2022-12-27T17:03:37.133Z,7.94
2022-12-27T17:06:32.535Z,7.95
2022-12-27T17:09:09.571Z,7.97
2022-12-27T17:11:51.493Z,8.08
2022-12-27T17:14:30.087Z,8.08
2022-12-27T17:17:00.905Z,8.16
2022-12-27T17:19:36.204Z,8.11
2022-12-27T17:22:11.040Z,8.09
2022-12-27T17:24:37.848Z,7.93
2022-12-27T17:27:31.792Z,7.92
2022-12-27T17:30:17.406Z,7.78
2022-12-27T17:33:10.296Z,7.57
2022-12-27T17:35:58.303Z,7.40
2022-12-27T17:38:40.428Z,7.33
2022-12-27T17:41:39.564Z,7.22
2022-12-27T17:44:41.031Z,7.08
2022-12-27T17:47:40.160Z,6.86
2022-12-27T17:50:18.070Z,6.59
2022-12-27T17:53:20.063Z,6.55
2022-12-27T17:56:19.393Z,6.35
2022-12-27T17:58:46.700Z,6.18
2022-12-27T18:01:14.501Z,5.99
2022-12-27T18:03:47.453Z,6.08
2022-12-27T18:06:19.860Z,5.97
2022-12-27T18:08:49.369Z,5.90
2022-12-27T18:11:16.959Z,5.85
2022-12-27T18:13:53.873Z,5.75
2022-12-27T18:16:29.399Z,5.77
2022-12-27T18:19:00.218Z,5.70
2022-12-27T18:21:28.778Z,5.67
2022-12-27T18:23:56.460Z,5.44
2022-12-27T18:26:38.656Z,5.32
2022-12-27T18:29:06.717Z,5.38
2022-12-27T18:31:33.811Z,5.33
2022-12-27T18:34:03.604Z,5.25
2022-12-27T18:36:40.566Z,5.27
2022-12-27T18:39:31.538Z,5.13
2022-12-27T18:42:01.118Z,5.12
2022-12-27T18:44:41.222Z,5.05
2022-12-27T18:47:19.559Z,4.97
2022-12-27T18:49:51.301Z,4.94
2022-12-27T18:52:25.149Z,5.03
2022-12-27T18:54:53.538Z,5.16
2022-12-27T18:57:39.565Z,5.11
2022-12-27T19:00:26.770Z,5.03
2022-12-27T19:02:55.385Z,4.92
2022-12-27T19:05:25.796Z,5.00
2022-12-27T19:08:02.178Z,4.71
2022-12-27T19:10:31.254Z,4.84
2022-12-27T19:12:58.488Z,4.71
2022-12-27T19:15:29.778Z,4.79
2022-12-27T19:18:01.492Z,4.80
2022-12-27T19:20:32.122Z,4.56
2022-12-27T19:23:03.556Z,4.66
2022-12-27T19:25:33.865Z,4.59
2022-12-27T19:28:10.431Z,4.79
2022-12-27T19:30:52.215Z,4.73
2022-12-27T19:33:29.249Z,4.68
2022-12-27T19:35:57.275Z,4.56
2022-12-27T19:38:26.537Z,4.56
2022-12-27T19:41:03.336Z,4.35
2022-12-27T19:43:38.941Z,4.40
2022-12-27T19:46:06.176Z,4.50
2022-12-27T19:48:33.810Z,4.35
2022-12-27T19:51:01.158Z,4.22
2022-12-27T19:53:32.604Z,4.36
2022-12-27T19:56:02.118Z,4.15
2022-12-27T19:58:30.959Z,4.24
2022-12-27T20:00:58.371Z,4.15
2022-12-27T20:03:26.320Z,4.11
2022-12-27T20:06:13.921Z,4.17
2022-12-27T20:08:49.026Z,4.01
2022-12-27T20:11:21.855Z,4.26
2022-12-27T20:13:49.208Z,4.09
2022-12-27T20:16:18.738Z,4.13
2022-12-27T20:18:45.842Z,4.01
2022-12-27T20:21:17.805Z,4.21
2022-12-27T20:23:45.283Z,4.34
2022-12-27T20:26:17.527Z,4.26
2022-12-27T20:28:44.748Z,4.19
2022-12-27T20:31:16.684Z,4.26
2022-12-27T20:33:44.240Z,4.19
2022-12-27T20:36:11.473Z,3.97
2022-12-27T20:38:40.311Z,4.15
2022-12-27T20:41:09.356Z,4.14
2022-12-27T20:43:36.425Z,4.15
2022-12-27T20:46:12.263Z,4.26
2022-12-27T20:48:41.403Z,4.11
2022-12-27T20:51:09.943Z,4.24
2022-12-27T20:53:37.317Z,4.29
2022-12-27T20:56:05.840Z,4.32
2022-12-27T20:58:34.222Z,4.40
2022-12-27T21:01:28.262Z,4.42
2022-12-27T21:03:57.347Z,4.28
2022-12-27T21:06:27.710Z,4.20
2022-12-27T21:08:58.340Z,4.15
2022-12-27T21:11:33.042Z,4.24
2022-12-27T21:14:01.508Z,4.22
2022-12-27T21:16:30.733Z,4.18
2022-12-27T21:19:05.126Z,4.23
2022-12-27T21:21:37.113Z,4.26
2022-12-27T21:24:05.838Z,4.33
2022-12-27T21:26:35.928Z,4.37
2022-12-27T21:29:05.084Z,4.34
2022-12-27T21:31:32.238Z,4.36
2022-12-27T21:33:59.884Z,4.30
2022-12-27T21:36:29.939Z,4.35
2022-12-27T21:38:57.408Z,4.29
2022-12-27T21:41:30.865Z,4.44
2022-12-27T21:43:58.289Z,4.32
2022-12-27T21:46:28.657Z,4.31
2022-12-27T21:48:58.434Z,4.34
2022-12-27T21:51:27.457Z,4.30
2022-12-27T21:53:56.134Z,4.34
2022-12-27T21:56:26.844Z,4.39
2022-12-27T21:58:57.354Z,4.49
2022-12-27T22:01:50.514Z,4.41
2022-12-27T22:04:18.697Z,4.47
2022-12-27T22:06:47.571Z,4.43
2022-12-27T22:09:14.985Z,4.39
2022-12-27T22:11:41.991Z,4.41
2022-12-27T22:14:09.037Z,4.41
2022-12-27T22:16:38.838Z,4.46
2022-12-27T22:19:07.718Z,4.46
2022-12-27T22:21:36.389Z,4.41
2022-12-27T22:24:04.439Z,4.42
2022-12-27T22:26:34.528Z,4.44
2022-12-27T22:29:02.029Z,4.41
2022-12-27T22:31:33.016Z,4.50
2022-12-27T22:34:00.010Z,4.40
2022-12-27T22:36:27.035Z,4.43
2022-12-27T22:38:58.927Z,4.44
2022-12-27T22:41:28.785Z,4.47
2022-12-27T22:44:01.570Z,4.62
2022-12-27T22:46:51.127Z,4.58
2022-12-27T22:49:17.408Z,4.59
2022-12-27T22:51:44.479Z,4.62
2022-12-27T22:54:11.471Z,4.56
2022-12-27T22:56:42.706Z,4.64
2022-12-27T22:59:15.166Z,4.65
2022-12-27T23:01:44.135Z,4.74
2022-12-27T23:04:13.715Z,4.69
2022-12-27T23:06:42.180Z,4.69
2022-12-27T23:09:09.700Z,4.75
2022-12-27T23:11:41.242Z,4.81
2022-12-27T23:14:14.122Z,4.71
2022-12-27T23:16:46.173Z,4.72
2022-12-27T23:19:15.342Z,4.67
2022-12-27T23:21:42.607Z,4.76
2022-12-27T23:24:10.522Z,4.69
2022-12-27T23:26:37.458Z,4.74
2022-12-27T23:29:05.010Z,4.96
2022-12-27T23:31:35.381Z,5.32
2022-12-27T23:34:27.589Z,5.55
2022-12-27T23:36:56.336Z,5.63
2022-12-27T23:39:23.089Z,5.64
2022-12-27T23:41:49.999Z,5.78
2022-12-27T23:44:21.232Z,5.77
2022-12-27T23:47:00.307Z,5.75
2022-12-27T23:49:27.453Z,5.80
2022-12-27T23:51:54.389Z,5.86
2022-12-27T23:54:21.208Z,5.85
2022-12-27T23:56:48.008Z,5.82
2022-12-27T23:59:16.950Z,5.69
